createdAt,value
2019-02-22T00:01:17.174Z,15.75
2019-02-22T00:03:46.606Z,16.10
2019-02-22T00:06:15.999Z,16.57
2019-02-22T00:08:45.443Z,12.10
2019-02-22T00:11:14.907Z,16.45
2019-02-22T00:13:44.351Z,15.55
2019-02-22T00:16:13.821Z,14.60
2019-02-22T00:18:43.255Z,14.43
2019-02-22T00:21:12.831Z,13.25
2019-02-22T00:23:42.279Z,13.13
2019-02-22T00:26:11.742Z,14.18
2019-02-22T00:28:41.182Z,14.03
2019-02-22T00:31:10.563Z,13.58
2019-02-22T00:33:39.999Z,13.90
2019-02-22T00:36:09.477Z,12.10
2019-02-22T00:38:38.891Z,11.85
2019-02-22T00:41:08.271Z,11.08
2019-02-22T00:43:37.715Z,13.32
2019-02-22T00:46:07.179Z,11.93
2019-02-22T00:48:36.619Z,13.32
2019-02-22T00:51:06.077Z,12.23
2019-02-22T00:53:35.514Z,11.50
2019-02-22T00:56:05.001Z,11.60
2019-02-22T00:58:34.410Z,13.18
2019-02-22T01:01:03.885Z,12.58
2019-02-22T01:03:33.362Z,10.10
2019-02-22T01:06:02.818Z,10.00
2019-02-22T01:08:32.259Z,10.75
2019-02-22T01:11:01.717Z,11.25
2019-02-22T01:13:31.175Z,10.08
2019-02-22T01:16:00.606Z,12.18
2019-02-22T01:18:29.963Z,13.00
2019-02-22T01:20:59.343Z,11.43
2019-02-22T01:23:28.783Z,11.20
2019-02-22T01:25:58.239Z,11.48
2019-02-22T01:28:27.683Z,10.05
2019-02-22T01:30:57.143Z,11.60
2019-02-22T01:33:26.612Z,8.45
2019-02-22T01:35:56.066Z,11.20
2019-02-22T01:38:25.499Z,9.50
2019-02-22T01:40:54.959Z,10.20
2019-02-22T01:43:24.391Z,10.48
2019-02-22T01:45:53.846Z,8.43
2019-02-22T01:48:23.199Z,9.28
2019-02-22T01:50:52.667Z,9.73
2019-02-22T01:53:22.095Z,8.35
2019-02-22T01:55:51.556Z,10.13
2019-02-22T01:58:20.991Z,8.85
2019-02-22T02:00:50.522Z,8.28
2019-02-22T02:03:19.956Z,10.82
2019-02-22T02:05:49.429Z,8.95
2019-02-22T02:08:19.066Z,7.97
2019-02-22T02:10:54.235Z,8.28
2019-02-22T02:13:19.446Z,8.88
2019-02-22T02:15:48.803Z,7.78
2019-02-22T02:18:18.254Z,7.97
2019-02-22T02:20:47.642Z,7.53
2019-02-22T02:23:17.078Z,7.65
2019-02-22T02:25:46.514Z,8.05
2019-02-22T02:28:15.970Z,7.53
2019-02-22T02:30:45.327Z,7.17
2019-02-22T02:33:14.787Z,6.97
2019-02-22T02:35:44.273Z,8.10
2019-02-22T02:38:13.670Z,5.80
2019-02-22T02:40:43.154Z,9.58
2019-02-22T02:43:12.614Z,8.58
2019-02-22T02:45:41.978Z,7.22
2019-02-22T02:48:11.432Z,7.45
2019-02-22T02:50:40.860Z,6.92
2019-02-22T02:53:10.315Z,6.47
2019-02-22T02:55:39.749Z,7.45
2019-02-22T02:58:09.195Z,6.33
2019-02-22T03:00:38.627Z,6.35
2019-02-22T03:03:08.079Z,7.00
2019-02-22T03:05:49.972Z,6.47
2019-02-22T03:08:20.496Z,6.30
2019-02-22T03:10:49.947Z,5.95
2019-02-22T03:13:19.370Z,6.67
2019-02-22T03:15:48.727Z,6.37
2019-02-22T03:18:18.189Z,7.37
2019-02-22T03:20:47.623Z,6.70
2019-02-22T03:23:17.000Z,6.17
2019-02-22T03:25:47.130Z,7.17
2019-02-22T03:28:16.511Z,5.17
2019-02-22T03:30:45.953Z,6.58
2019-02-22T03:33:15.402Z,7.35
2019-02-22T03:35:44.864Z,7.78
2019-02-22T03:38:14.320Z,5.70
2019-02-22T03:40:43.775Z,5.65
2019-02-22T03:43:13.230Z,5.47
2019-02-22T03:45:42.662Z,6.12
2019-02-22T03:48:12.046Z,6.87
2019-02-22T03:50:41.483Z,5.92
2019-02-22T03:53:15.536Z,5.12
2019-02-22T03:55:44.978Z,6.50
2019-02-22T03:58:14.440Z,5.17
2019-02-22T04:00:43.870Z,5.45
2019-02-22T04:03:13.319Z,5.72
2019-02-22T04:05:42.759Z,5.40
2019-02-22T04:08:12.214Z,5.37
2019-02-22T04:10:41.644Z,4.28
2019-02-22T04:13:11.095Z,5.65
2019-02-22T04:15:40.527Z,5.58
2019-02-22T04:18:09.980Z,5.92
2019-02-22T04:20:39.447Z,4.47
2019-02-22T04:23:08.907Z,5.90
2019-02-22T04:25:38.343Z,4.22
2019-02-22T04:28:07.798Z,6.20
2019-02-22T04:30:37.926Z,4.97
2019-02-22T04:33:07.611Z,4.53
2019-02-22T04:35:37.042Z,6.20
2019-02-22T04:38:06.494Z,6.08
2019-02-22T04:40:35.845Z,5.65
2019-02-22T04:43:05.330Z,4.95
2019-02-22T04:45:35.841Z,6.00
2019-02-22T04:48:05.380Z,4.80
2019-02-22T04:50:34.812Z,5.75
2019-02-22T04:53:04.275Z,5.50
2019-02-22T04:55:33.711Z,4.15
2019-02-22T04:58:03.154Z,4.15
2019-02-22T05:00:32.593Z,4.90
2019-02-22T05:03:02.092Z,5.40
2019-02-22T05:05:31.530Z,4.17
2019-02-22T05:08:00.986Z,4.28
2019-02-22T05:10:30.487Z,4.35
2019-02-22T05:13:00.574Z,5.95
2019-02-22T05:15:29.940Z,5.42
2019-02-22T05:17:59.430Z,4.17
2019-02-22T05:20:28.919Z,4.17
2019-02-22T05:23:03.752Z,4.92
2019-02-22T05:25:29.279Z,4.22
2019-02-22T05:27:58.711Z,4.08
2019-02-22T05:30:28.168Z,4.60
2019-02-22T05:32:57.602Z,5.00
2019-02-22T05:35:27.068Z,4.55
2019-02-22T05:37:56.532Z,5.47
2019-02-22T05:40:25.944Z,4.60
2019-02-22T05:42:55.379Z,4.72
2019-02-22T05:45:24.833Z,5.00
2019-02-22T05:47:54.263Z,4.12
2019-02-22T05:50:23.720Z,3.95
2019-02-22T05:52:53.151Z,3.85
2019-02-22T05:55:22.602Z,4.05
2019-02-22T05:57:51.951Z,3.72
2019-02-22T06:00:21.408Z,3.92
2019-02-22T06:02:50.842Z,4.45
2019-02-22T06:05:20.223Z,3.67
2019-02-22T06:07:49.580Z,4.92
2019-02-22T06:10:19.038Z,5.03
2019-02-22T06:12:48.465Z,3.90
2019-02-22T06:15:17.942Z,4.25
2019-02-22T06:17:47.334Z,5.05
2019-02-22T06:20:16.786Z,6.33
2019-02-22T06:22:46.144Z,4.45
2019-02-22T06:25:15.613Z,6.80
2019-02-22T06:27:45.045Z,4.53
2019-02-22T06:30:15.566Z,5.15
2019-02-22T06:32:44.915Z,9.10
2019-02-22T06:35:14.287Z,6.55
2019-02-22T06:37:43.725Z,6.72
2019-02-22T06:40:13.183Z,10.23
2019-02-22T06:42:45.794Z,6.28
2019-02-22T06:45:13.617Z,5.92
2019-02-22T06:47:43.050Z,5.55
2019-02-22T06:50:12.499Z,8.28
2019-02-22T06:52:41.931Z,7.62
2019-02-22T06:55:11.388Z,5.95
2019-02-22T06:57:40.826Z,6.92
2019-02-22T07:00:12.530Z,8.25
2019-02-22T07:02:42.134Z,5.55
2019-02-22T07:05:11.651Z,7.85
2019-02-22T07:07:41.091Z,5.35
2019-02-22T07:10:11.165Z,7.00
2019-02-22T07:12:56.185Z,9.48
2019-02-22T07:17:46.191Z,6.55
2019-02-22T07:20:15.634Z,8.13
2019-02-22T07:22:45.071Z,6.05
2019-02-22T07:25:14.518Z,8.10
2019-02-22T07:27:44.017Z,7.30
2019-02-22T07:30:13.394Z,6.67
2019-02-22T07:32:42.900Z,6.80
2019-02-22T07:35:14.407Z,6.67
2019-02-22T07:37:43.467Z,7.22
2019-02-22T07:40:13.004Z,5.95
2019-02-22T07:42:42.513Z,5.40
2019-02-22T07:45:13.039Z,7.58
2019-02-22T07:47:42.535Z,5.80
2019-02-22T07:50:11.994Z,9.23
2019-02-22T07:52:41.439Z,5.15
2019-02-22T07:55:11.162Z,7.90
2019-02-22T07:57:41.731Z,6.83
2019-02-22T08:00:13.984Z,5.75
2019-02-22T08:02:43.383Z,4.75
2019-02-22T08:05:13.919Z,6.58
2019-02-22T08:07:43.506Z,7.92
2019-02-22T08:10:12.867Z,5.55
2019-02-22T08:12:42.238Z,5.20
2019-02-22T08:17:41.250Z,6.70
2019-02-22T08:20:10.678Z,6.60
2019-02-22T08:22:40.223Z,5.35
2019-02-22T08:25:09.663Z,6.33
2019-02-22T08:27:40.296Z,5.17
2019-02-22T08:30:11.248Z,6.58
2019-02-22T08:32:40.711Z,5.62
2019-02-22T08:35:10.153Z,5.10
2019-02-22T08:37:39.606Z,7.20
2019-02-22T08:40:10.479Z,5.40
2019-02-22T08:42:39.930Z,5.90
2019-02-22T08:45:10.246Z,6.70
2019-02-22T08:47:39.717Z,4.20
2019-02-22T08:50:09.143Z,6.78
2019-02-22T08:52:38.532Z,4.35
2019-02-22T08:55:07.963Z,5.37
2019-02-22T08:57:37.560Z,5.60
2019-02-22T09:00:10.297Z,6.67
2019-02-22T09:02:39.953Z,4.30
2019-02-22T09:05:09.742Z,5.53
2019-02-22T09:07:39.194Z,4.22
2019-02-22T09:10:10.833Z,5.35
2019-02-22T09:12:40.371Z,4.47
2019-02-22T09:15:10.646Z,4.55
2019-02-22T09:17:40.100Z,5.53
2019-02-22T09:20:13.460Z,5.20
2019-02-22T09:22:42.902Z,4.05
2019-02-22T09:25:12.477Z,18.77
2019-02-22T09:27:41.947Z,7.12
2019-02-22T09:30:12.058Z,5.60
2019-02-22T09:32:41.514Z,4.80
2019-02-22T09:35:11.437Z,5.60
2019-02-22T09:37:41.103Z,4.00
2019-02-22T09:40:14.386Z,5.10
2019-02-22T09:42:42.832Z,4.25
2019-02-22T09:45:12.904Z,4.00
2019-02-22T09:47:42.430Z,4.35
2019-02-22T09:50:14.319Z,4.72
2019-02-22T09:52:43.782Z,4.22
2019-02-22T09:55:13.693Z,4.28
2019-02-22T09:57:43.294Z,3.80
2019-02-22T10:00:14.625Z,3.42
2019-02-22T10:02:44.971Z,3.92
2019-02-22T10:05:14.523Z,4.90
2019-02-22T10:07:43.899Z,3.47
2019-02-22T10:10:13.347Z,6.25
2019-02-22T10:12:42.770Z,4.53
2019-02-22T10:15:12.207Z,4.87
2019-02-22T10:17:41.749Z,5.83
2019-02-22T10:20:11.248Z,5.05
2019-02-22T10:22:40.706Z,7.00
2019-02-22T10:25:10.154Z,8.40
2019-02-22T10:27:39.627Z,6.60
2019-02-22T10:30:11.461Z,3.20
2019-02-22T10:32:40.913Z,4.12
2019-02-22T10:35:10.355Z,3.95
2019-02-22T10:37:39.809Z,4.90
2019-02-22T10:40:10.082Z,4.17
2019-02-22T10:42:39.559Z,2.85
2019-02-22T10:45:10.593Z,4.53
2019-02-22T10:47:40.002Z,3.40
2019-02-22T10:50:09.706Z,5.30
2019-02-22T10:52:39.054Z,3.15
2019-02-22T10:55:14.770Z,5.85
2019-02-22T10:57:44.207Z,9.23
2019-02-22T11:00:16.683Z,4.50
2019-02-22T11:02:46.210Z,3.75
2019-02-22T11:05:15.669Z,5.35
2019-02-22T11:07:45.098Z,3.90
2019-02-22T11:10:14.928Z,4.90
2019-02-22T11:12:44.356Z,3.00
2019-02-22T11:15:13.986Z,3.08
2019-02-22T11:17:43.341Z,2.95
2019-02-22T11:20:12.794Z,4.50
2019-02-22T11:22:42.239Z,3.33
2019-02-22T11:25:13.627Z,2.50
2019-02-22T11:27:43.062Z,2.58
2019-02-22T11:30:13.987Z,2.67
2019-02-22T11:32:43.430Z,2.77
2019-02-22T11:35:12.887Z,2.40
2019-02-22T11:37:42.243Z,3.77
2019-02-22T11:40:12.074Z,2.60
2019-02-22T11:42:41.505Z,2.62
2019-02-22T11:45:11.138Z,5.87
2019-02-22T11:47:41.680Z,2.70
2019-02-22T11:50:12.274Z,2.55
2019-02-22T11:52:41.785Z,2.52
2019-02-22T11:55:11.575Z,4.08
2019-02-22T11:57:41.016Z,2.75
2019-02-22T12:00:15.102Z,3.55
2019-02-22T12:02:45.431Z,2.67
2019-02-22T12:05:15.070Z,2.45
2019-02-22T12:07:44.615Z,5.00
2019-02-22T12:10:14.326Z,2.67
2019-02-22T12:12:43.844Z,2.12
2019-02-22T12:15:14.310Z,2.40
2019-02-22T12:17:43.664Z,8.23
2019-02-22T12:20:13.114Z,8.40
2019-02-22T12:22:42.759Z,10.68
2019-02-22T12:25:14.907Z,9.53
2019-02-22T12:27:44.339Z,8.20
2019-02-22T12:30:15.222Z,9.75
2019-02-22T12:32:44.571Z,8.25
2019-02-22T12:35:14.026Z,6.37
2019-02-22T12:37:43.458Z,4.15
2019-02-22T12:40:13.153Z,3.40
2019-02-22T12:42:42.601Z,4.90
2019-02-22T12:45:13.003Z,6.28
2019-02-22T12:47:42.442Z,7.08
2019-02-22T12:50:12.844Z,7.00
2019-02-22T12:52:42.271Z,6.58
2019-02-22T12:55:11.734Z,8.05
2019-02-22T12:57:41.089Z,3.00
2019-02-22T13:00:18.876Z,4.85
2019-02-22T13:02:48.645Z,5.97
2019-02-22T13:05:24.038Z,2.90
2019-02-22T13:07:53.476Z,8.75
2019-02-22T13:10:22.943Z,6.03
2019-02-22T13:12:52.305Z,4.60
2019-02-22T13:15:21.747Z,5.45
2019-02-22T13:17:51.299Z,4.03
2019-02-22T13:20:20.822Z,4.65
2019-02-22T13:22:50.442Z,3.40
2019-02-22T13:25:19.908Z,5.45
2019-02-22T13:27:49.326Z,2.85
2019-02-22T13:30:18.795Z,2.70
2019-02-22T13:32:48.147Z,4.83
2019-02-22T13:35:17.610Z,3.95
2019-02-22T13:37:47.336Z,3.42
2019-02-22T13:40:18.334Z,5.17
2019-02-22T13:42:48.170Z,5.33
2019-02-22T13:45:25.966Z,3.10
2019-02-22T13:47:48.819Z,4.67
2019-02-22T13:50:18.940Z,4.72
2019-02-22T13:52:48.486Z,4.33
2019-02-22T13:55:18.912Z,4.47
2019-02-22T13:57:48.350Z,3.00
2019-02-22T14:00:18.808Z,3.80
2019-02-22T14:02:48.211Z,3.40
2019-02-22T14:05:18.712Z,2.00
2019-02-22T14:07:56.014Z,2.55
2019-02-22T14:10:26.006Z,3.87
2019-02-22T14:12:55.507Z,1.82
2019-02-22T14:15:24.972Z,4.90
2019-02-22T14:17:54.402Z,4.12
2019-02-22T14:20:23.862Z,2.87
2019-02-22T14:22:53.220Z,3.08
2019-02-22T14:25:22.731Z,3.12
2019-02-22T14:27:52.378Z,2.80
2019-02-22T14:30:21.930Z,2.65
2019-02-22T14:32:51.391Z,2.83
2019-02-22T14:35:20.767Z,3.72
2019-02-22T14:37:50.292Z,3.50
2019-02-22T14:40:19.722Z,2.75
2019-02-22T14:42:49.179Z,3.30
2019-02-22T14:45:18.686Z,3.02
2019-02-22T14:47:48.138Z,5.45
2019-02-22T14:50:19.278Z,4.35
2019-02-22T14:52:48.735Z,6.30
2019-02-22T14:55:18.186Z,4.60
2019-02-22T14:57:47.647Z,6.17
2019-02-22T15:00:20.340Z,6.47
2019-02-22T15:02:49.802Z,6.12
2019-02-22T15:05:19.230Z,5.95
2019-02-22T15:07:48.698Z,6.40
2019-02-22T15:10:18.704Z,7.22
2019-02-22T15:12:48.295Z,6.75
2019-02-22T15:15:21.358Z,6.37
2019-02-22T15:17:52.380Z,6.03
2019-02-22T15:20:21.826Z,5.92
2019-02-22T15:22:51.458Z,4.97
2019-02-22T15:25:20.908Z,3.87
2019-02-22T15:27:50.401Z,4.40
2019-02-22T15:30:19.959Z,6.42
2019-02-22T15:32:49.515Z,5.75
2019-02-22T15:35:18.965Z,8.05
2019-02-22T15:37:48.491Z,6.75
2019-02-22T15:40:18.921Z,4.35
2019-02-22T15:42:48.407Z,10.03
2019-02-22T15:45:19.343Z,4.45
2019-02-22T15:47:50.311Z,6.22
2019-02-22T15:50:19.872Z,8.20
2019-02-22T15:52:50.509Z,7.47
2019-02-22T15:55:20.119Z,10.95
2019-02-22T15:57:49.540Z,7.33
2019-02-22T16:00:22.376Z,6.72
2019-02-22T16:02:51.832Z,7.20
2019-02-22T16:05:28.703Z,6.33
2019-02-22T16:07:58.164Z,12.28
2019-02-22T16:10:27.598Z,8.13
2019-02-22T16:12:56.982Z,9.73
2019-02-22T16:15:26.416Z,8.13
2019-02-22T16:17:55.871Z,9.48
2019-02-22T16:20:25.386Z,5.55
2019-02-22T16:22:54.862Z,6.83
2019-02-22T16:25:24.296Z,4.25
2019-02-22T16:27:53.767Z,9.10
2019-02-22T16:30:24.838Z,6.90
2019-02-22T16:32:54.211Z,4.33
2019-02-22T16:35:23.715Z,5.62
2019-02-22T16:37:53.171Z,5.85
2019-02-22T16:40:22.604Z,8.63
2019-02-22T16:42:52.057Z,4.85
2019-02-22T16:45:21.439Z,6.78
2019-02-22T16:47:50.894Z,4.95
2019-02-22T16:50:20.326Z,5.78
2019-02-22T16:52:49.782Z,9.88
2019-02-22T16:55:19.211Z,7.42
2019-02-22T16:57:48.670Z,6.00
2019-02-22T17:00:19.089Z,8.55
2019-02-22T17:02:49.013Z,4.15
2019-02-22T17:05:18.457Z,8.55
2019-02-22T17:07:47.922Z,8.18
2019-02-22T17:10:17.352Z,11.03
2019-02-22T17:12:46.808Z,7.67
2019-02-22T17:15:16.242Z,6.15
2019-02-22T17:17:45.689Z,8.05
2019-02-22T17:20:15.782Z,5.22
2019-02-22T17:22:45.242Z,3.42
2019-02-22T17:25:20.081Z,10.48
2019-02-22T17:27:49.530Z,8.93
2019-02-22T17:30:23.404Z,8.55
2019-02-22T17:32:52.854Z,6.58
2019-02-22T17:35:22.286Z,9.25
2019-02-22T17:37:51.670Z,11.80
2019-02-22T17:40:26.394Z,6.30
2019-02-22T17:42:55.775Z,7.63
2019-02-22T17:45:25.216Z,12.43
2019-02-22T17:47:54.671Z,2.98
2019-02-22T17:50:24.099Z,6.25
2019-02-22T17:52:53.570Z,12.70
2019-02-22T17:55:23.010Z,7.42
2019-02-22T17:57:52.632Z,10.10
2019-02-22T18:00:23.710Z,8.15
2019-02-22T18:02:53.162Z,7.78
2019-02-22T18:05:22.601Z,10.48
2019-02-22T18:07:52.056Z,11.65
2019-02-22T18:10:21.503Z,8.13
2019-02-22T18:12:51.029Z,15.75
2019-02-22T18:15:20.398Z,10.60
2019-02-22T18:17:49.848Z,7.28
2019-02-22T18:20:19.278Z,9.08
2019-02-22T18:22:48.732Z,8.83
2019-02-22T18:25:18.164Z,8.83
2019-02-22T18:27:47.618Z,9.15
2019-02-22T18:30:21.639Z,14.35
2019-02-22T18:32:51.094Z,7.87
2019-02-22T18:35:20.526Z,5.87
2019-02-22T18:37:50.190Z,11.48
2019-02-22T18:40:23.238Z,7.28
2019-02-22T18:42:52.696Z,6.30
2019-02-22T18:45:22.142Z,8.70
2019-02-22T18:47:51.588Z,9.75
2019-02-22T18:50:21.050Z,9.08
2019-02-22T18:52:50.482Z,7.20
2019-02-22T18:55:19.936Z,7.37
2019-02-22T18:57:49.382Z,7.28
2019-02-22T19:00:22.187Z,8.18
2019-02-22T19:02:51.789Z,4.03
2019-02-22T19:05:21.241Z,5.62
2019-02-22T19:07:50.595Z,6.97
2019-02-22T19:10:20.419Z,6.83
2019-02-22T19:12:49.924Z,5.87
2019-02-22T19:15:19.375Z,3.37
2019-02-22T19:17:48.815Z,13.10
2019-02-22T19:20:19.712Z,7.72
2019-02-22T19:22:49.155Z,10.03
2019-02-22T19:25:18.610Z,4.83
2019-02-22T19:27:48.213Z,3.90
2019-02-22T19:30:22.564Z,3.90
2019-02-22T19:32:51.995Z,5.15
2019-02-22T19:35:21.456Z,5.58
2019-02-22T19:37:50.902Z,4.12
2019-02-22T19:40:24.614Z,4.60
2019-02-22T19:42:54.046Z,7.30
2019-02-22T19:45:23.530Z,6.05
2019-02-22T19:47:52.883Z,5.35
2019-02-22T19:50:22.338Z,6.17
2019-02-22T19:52:51.776Z,6.97
2019-02-22T19:55:21.237Z,8.70
2019-02-22T19:57:50.660Z,5.40
2019-02-22T20:00:20.303Z,4.67
2019-02-22T20:02:49.735Z,4.80
2019-02-22T20:05:19.290Z,3.77
2019-02-22T20:07:48.890Z,3.77
2019-02-22T20:10:22.628Z,7.50
2019-02-22T20:12:52.079Z,4.72
2019-02-22T20:15:21.460Z,4.45
2019-02-22T20:17:54.447Z,4.50
2019-02-22T20:20:21.973Z,5.60
2019-02-22T20:22:51.450Z,7.87
2019-02-22T20:25:21.059Z,7.70
2019-02-22T20:27:50.507Z,6.67
2019-02-22T20:30:20.241Z,6.08
2019-02-22T20:32:49.747Z,5.35
2019-02-22T20:35:29.414Z,2.85
2019-02-22T20:37:59.154Z,3.33
2019-02-22T20:40:29.036Z,6.80
2019-02-22T20:42:58.535Z,4.65
2019-02-22T20:45:27.967Z,2.80
2019-02-22T20:48:05.235Z,3.10
2019-02-22T20:50:28.405Z,5.20
2019-02-22T20:52:57.759Z,3.45
2019-02-22T20:55:27.294Z,2.10
2019-02-22T20:57:56.900Z,4.40
2019-02-22T21:00:29.718Z,4.50
2019-02-22T21:02:59.286Z,3.95
2019-02-22T21:05:28.743Z,2.17
2019-02-22T21:07:58.284Z,3.17
2019-02-22T21:10:28.023Z,5.20
2019-02-22T21:12:57.601Z,3.47
2019-02-22T21:15:27.132Z,3.27
2019-02-22T21:17:56.635Z,3.22
2019-02-22T21:20:26.189Z,2.00
2019-02-22T21:22:55.574Z,6.15
2019-02-22T21:25:25.040Z,5.03
2019-02-22T21:27:54.507Z,2.42
2019-02-22T21:30:23.971Z,7.12
2019-02-22T21:32:53.415Z,4.95
2019-02-22T21:35:22.871Z,2.98
2019-02-22T21:37:52.397Z,3.67
2019-02-22T21:40:23.490Z,2.27
2019-02-22T21:42:52.849Z,1.92
2019-02-22T21:45:22.304Z,3.67
2019-02-22T21:47:55.445Z,1.57
2019-02-22T21:50:22.750Z,3.40
2019-02-22T21:52:52.188Z,2.00
2019-02-22T21:55:21.642Z,5.95
2019-02-22T21:57:52.709Z,2.12
2019-02-22T22:00:24.906Z,1.27
2019-02-22T22:02:54.415Z,3.40
2019-02-22T22:05:23.911Z,1.85
2019-02-22T22:07:53.342Z,3.75
2019-02-22T22:10:22.955Z,2.37
2019-02-22T22:12:52.523Z,2.98
2019-02-22T22:15:21.985Z,4.28
2019-02-22T22:17:51.409Z,1.82
2019-02-22T22:20:20.794Z,1.65
2019-02-22T22:22:50.235Z,2.98
2019-02-22T22:25:19.722Z,2.02
2019-02-22T22:27:49.070Z,2.33
2019-02-22T22:30:18.463Z,3.30
2019-02-22T22:32:47.916Z,3.40
2019-02-22T22:35:18.611Z,2.42
2019-02-22T22:37:48.049Z,2.25
2019-02-22T22:40:17.501Z,1.95
2019-02-22T22:42:47.022Z,2.40
2019-02-22T22:45:17.294Z,3.50
2019-02-22T22:47:46.734Z,1.92
2019-02-22T22:50:17.254Z,2.85
2019-02-22T22:52:46.695Z,2.33
2019-02-22T22:55:16.158Z,1.42
2019-02-22T22:57:46.587Z,1.00
2019-02-22T23:00:35.595Z,1.85
2019-02-22T23:03:06.914Z,2.05
2019-02-22T23:05:36.454Z,1.25
2019-02-22T23:08:05.962Z,1.37
2019-02-22T23:10:35.486Z,0.95
2019-02-22T23:13:04.910Z,1.62
2019-02-22T23:15:34.290Z,0.90
2019-02-22T23:18:03.638Z,1.95
2019-02-22T23:20:33.094Z,1.45
2019-02-22T23:23:02.447Z,1.57
2019-02-22T23:25:31.906Z,1.32
2019-02-22T23:28:01.408Z,1.00
2019-02-22T23:30:30.871Z,1.00
2019-02-22T23:33:00.302Z,1.98
2019-02-22T23:35:29.678Z,0.90
2019-02-22T23:37:59.108Z,2.22
2019-02-22T23:40:28.563Z,1.17
2019-02-22T23:42:57.914Z,2.50
2019-02-22T23:45:27.603Z,2.30
2019-02-22T23:47:57.190Z,0.98
2019-02-22T23:50:26.638Z,2.08
2019-02-22T23:52:58.778Z,1.32
2019-02-22T23:55:28.242Z,1.72
2019-02-22T23:57:57.666Z,1.35
